sensor_id;sensor_type;location;lat;lon;timestamp;temperature;humidity
24744;DHT22;12844;52.110;5.548;2023-02-28T00:00:41;14.20;50.60
24744;DHT22;12844;52.110;5.548;2023-02-28T00:03:06;14.20;50.60
24744;DHT22;12844;52.110;5.548;2023-02-28T00:05:33;14.20;50.60
24744;DHT22;12844;52.110;5.548;2023-02-28T00:07:58;14.20;50.70
24744;DHT22;12844;52.110;5.548;2023-02-28T00:10:27;14.20;51.30
24744;DHT22;12844;52.110;5.548;2023-02-28T00:12:54;14.20;50.60
24744;DHT22;12844;52.110;5.548;2023-02-28T00:15:22;14.20;50.60
24744;DHT22;12844;52.110;5.548;2023-02-28T00:17:48;14.20;50.60
24744;DHT22;12844;52.110;5.548;2023-02-28T00:20:13;14.20;50.60
24744;DHT22;12844;52.110;5.548;2023-02-28T00:22:40;14.20;50.70
24744;DHT22;12844;52.110;5.548;2023-02-28T00:25:06;14.10;50.60
24744;DHT22;12844;52.110;5.548;2023-02-28T00:27:32;14.10;50.70
24744;DHT22;12844;52.110;5.548;2023-02-28T00:29:58;14.10;50.60
24744;DHT22;12844;52.110;5.548;2023-02-28T00:32:23;14.20;50.60
24744;DHT22;12844;52.110;5.548;2023-02-28T00:34:48;14.20;50.60
24744;DHT22;12844;52.110;5.548;2023-02-28T00:37:14;14.20;50.60
24744;DHT22;12844;52.110;5.548;2023-02-28T00:39:39;14.20;50.70
24744;DHT22;12844;52.110;5.548;2023-02-28T00:42:06;14.20;50.60
24744;DHT22;12844;52.110;5.548;2023-02-28T00:44:31;14.20;50.70
24744;DHT22;12844;52.110;5.548;2023-02-28T00:46:57;14.20;50.70
24744;DHT22;12844;52.110;5.548;2023-02-28T00:49:23;14.20;50.60
24744;DHT22;12844;52.110;5.548;2023-02-28T00:51:48;14.20;50.60
24744;DHT22;12844;52.110;5.548;2023-02-28T00:54:14;14.20;50.60
24744;DHT22;12844;52.110;5.548;2023-02-28T00:56:39;14.10;50.60
24744;DHT22;12844;52.110;5.548;2023-02-28T00:59:05;14.10;50.60
24744;DHT22;12844;52.110;5.548;2023-02-28T01:01:31;14.10;50.70
24744;DHT22;12844;52.110;5.548;2023-02-28T01:03:56;14.10;50.70
24744;DHT22;12844;52.110;5.548;2023-02-28T01:06:22;14.10;50.70
24744;DHT22;12844;52.110;5.548;2023-02-28T01:08:47;14.10;50.80
24744;DHT22;12844;52.110;5.548;2023-02-28T01:11:13;14.10;50.70
24744;DHT22;12844;52.110;5.548;2023-02-28T01:13:40;14.10;50.70
24744;DHT22;12844;52.110;5.548;2023-02-28T01:16:05;14.10;51.40
24744;DHT22;12844;52.110;5.548;2023-02-28T01:18:31;14.10;50.80
24744;DHT22;12844;52.110;5.548;2023-02-28T01:20:56;14.10;50.60
24744;DHT22;12844;52.110;5.548;2023-02-28T01:23:22;14.10;50.70
24744;DHT22;12844;52.110;5.548;2023-02-28T01:25:49;14.10;50.70
24744;DHT22;12844;52.110;5.548;2023-02-28T01:28:14;14.10;50.70
24744;DHT22;12844;52.110;5.548;2023-02-28T01:30:40;14.10;50.80
24744;DHT22;12844;52.110;5.548;2023-02-28T01:33:05;14.10;50.80
24744;DHT22;12844;52.110;5.548;2023-02-28T01:35:34;14.10;50.80
24744;DHT22;12844;52.110;5.548;2023-02-28T01:38:00;14.10;50.80
24744;DHT22;12844;52.110;5.548;2023-02-28T01:40:26;14.00;50.90
24744;DHT22;12844;52.110;5.548;2023-02-28T01:42:51;14.00;50.90
24744;DHT22;12844;52.110;5.548;2023-02-28T01:45:22;14.00;50.80
24744;DHT22;12844;52.110;5.548;2023-02-28T01:47:50;14.00;50.80
24744;DHT22;12844;52.110;5.548;2023-02-28T01:50:17;14.00;50.80
24744;DHT22;12844;52.110;5.548;2023-02-28T01:52:43;14.00;50.90
24744;DHT22;12844;52.110;5.548;2023-02-28T01:55:09;14.10;50.90
24744;DHT22;12844;52.110;5.548;2023-02-28T01:57:37;14.10;50.80
24744;DHT22;12844;52.110;5.548;2023-02-28T02:00:05;14.00;50.80
24744;DHT22;12844;52.110;5.548;2023-02-28T02:02:34;14.10;50.80
24744;DHT22;12844;52.110;5.548;2023-02-28T02:05:06;14.10;50.80
24744;DHT22;12844;52.110;5.548;2023-02-28T02:07:33;14.00;50.80
24744;DHT22;12844;52.110;5.548;2023-02-28T02:10:00;14.00;50.80
24744;DHT22;12844;52.110;5.548;2023-02-28T02:17:39;14.10;50.80
24744;DHT22;12844;52.110;5.548;2023-02-28T02:31:03;14.10;50.80
24744;DHT22;12844;52.110;5.548;2023-02-28T02:36:25;14.00;50.80
24744;DHT22;12844;52.110;5.548;2023-02-28T02:38:54;14.00;50.90
24744;DHT22;12844;52.110;5.548;2023-02-28T02:41:28;14.10;50.80
24744;DHT22;12844;52.110;5.548;2023-02-28T02:46:39;14.10;50.80
24744;DHT22;12844;52.110;5.548;2023-02-28T02:49:07;14.00;50.80
24744;DHT22;12844;52.110;5.548;2023-02-28T02:51:33;14.00;50.70
24744;DHT22;12844;52.110;5.548;2023-02-28T02:54:02;14.00;50.80
24744;DHT22;12844;52.110;5.548;2023-02-28T02:56:28;14.00;50.70
24744;DHT22;12844;52.110;5.548;2023-02-28T02:58:57;14.00;50.80
24744;DHT22;12844;52.110;5.548;2023-02-28T03:01:24;14.00;50.70
24744;DHT22;12844;52.110;5.548;2023-02-28T03:03:55;14.10;50.80
24744;DHT22;12844;52.110;5.548;2023-02-28T03:06:20;14.00;50.70
24744;DHT22;12844;52.110;5.548;2023-02-28T03:08:46;14.10;50.80
24744;DHT22;12844;52.110;5.548;2023-02-28T03:11:12;14.00;50.70
24744;DHT22;12844;52.110;5.548;2023-02-28T03:19:31;14.00;50.60
24744;DHT22;12844;52.110;5.548;2023-02-28T03:27:24;14.00;50.80
24744;DHT22;12844;52.110;5.548;2023-02-28T03:30:00;14.00;50.80
24744;DHT22;12844;52.110;5.548;2023-02-28T03:32:29;14.00;50.80
24744;DHT22;12844;52.110;5.548;2023-02-28T03:35:00;14.00;50.70
24744;DHT22;12844;52.110;5.548;2023-02-28T03:37:28;14.00;50.80
24744;DHT22;12844;52.110;5.548;2023-02-28T03:39:58;14.00;50.80
24744;DHT22;12844;52.110;5.548;2023-02-28T03:42:25;14.00;50.70
24744;DHT22;12844;52.110;5.548;2023-02-28T03:44:59;14.00;50.60
24744;DHT22;12844;52.110;5.548;2023-02-28T03:49:59;14.00;50.80
24744;DHT22;12844;52.110;5.548;2023-02-28T03:52:27;14.00;50.80
24744;DHT22;12844;52.110;5.548;2023-02-28T03:54:54;14.00;50.80
24744;DHT22;12844;52.110;5.548;2023-02-28T03:57:30;14.00;50.80
24744;DHT22;12844;52.110;5.548;2023-02-28T03:59:59;14.00;50.70
24744;DHT22;12844;52.110;5.548;2023-02-28T04:02:25;14.00;50.70
24744;DHT22;12844;52.110;5.548;2023-02-28T04:04:50;14.00;50.80
24744;DHT22;12844;52.110;5.548;2023-02-28T04:07:16;14.00;50.70
24744;DHT22;12844;52.110;5.548;2023-02-28T04:09:42;13.90;50.80
24744;DHT22;12844;52.110;5.548;2023-02-28T04:12:08;13.90;50.80
24744;DHT22;12844;52.110;5.548;2023-02-28T04:14:33;13.90;50.80
24744;DHT22;12844;52.110;5.548;2023-02-28T04:16:59;14.00;50.80
24744;DHT22;12844;52.110;5.548;2023-02-28T04:19:24;14.00;50.70
24744;DHT22;12844;52.110;5.548;2023-02-28T04:21:51;13.90;50.70
24744;DHT22;12844;52.110;5.548;2023-02-28T04:24:18;14.00;50.70
24744;DHT22;12844;52.110;5.548;2023-02-28T04:26:48;14.00;50.70
24744;DHT22;12844;52.110;5.548;2023-02-28T04:29:17;14.00;50.80
24744;DHT22;12844;52.110;5.548;2023-02-28T04:31:43;14.00;50.80
24744;DHT22;12844;52.110;5.548;2023-02-28T04:34:08;14.00;50.80
24744;DHT22;12844;52.110;5.548;2023-02-28T04:36:34;13.90;50.70
24744;DHT22;12844;52.110;5.548;2023-02-28T04:38:59;13.90;50.70
24744;DHT22;12844;52.110;5.548;2023-02-28T04:41:26;13.90;50.70
24744;DHT22;12844;52.110;5.548;2023-02-28T04:43:51;13.90;50.70
24744;DHT22;12844;52.110;5.548;2023-02-28T04:46:18;14.00;50.60
24744;DHT22;12844;52.110;5.548;2023-02-28T04:48:43;13.90;50.70
24744;DHT22;12844;52.110;5.548;2023-02-28T04:51:13;14.00;50.70
24744;DHT22;12844;52.110;5.548;2023-02-28T04:53:39;13.90;50.70
24744;DHT22;12844;52.110;5.548;2023-02-28T04:56:06;13.90;50.80
24744;DHT22;12844;52.110;5.548;2023-02-28T04:58:32;13.90;50.80
24744;DHT22;12844;52.110;5.548;2023-02-28T05:01:16;13.90;50.70
24744;DHT22;12844;52.110;5.548;2023-02-28T05:03:42;13.90;50.70
24744;DHT22;12844;52.110;5.548;2023-02-28T05:06:08;13.90;50.60
24744;DHT22;12844;52.110;5.548;2023-02-28T05:08:33;13.90;50.60
24744;DHT22;12844;52.110;5.548;2023-02-28T05:10:59;13.90;50.60
24744;DHT22;12844;52.110;5.548;2023-02-28T05:13:26;13.90;50.70
24744;DHT22;12844;52.110;5.548;2023-02-28T05:15:52;13.90;50.70
24744;DHT22;12844;52.110;5.548;2023-02-28T05:18:17;13.90;50.70
24744;DHT22;12844;52.110;5.548;2023-02-28T05:20:43;13.90;50.60
24744;DHT22;12844;52.110;5.548;2023-02-28T05:23:08;13.90;50.50
24744;DHT22;12844;52.110;5.548;2023-02-28T05:25:36;13.90;50.50
24744;DHT22;12844;52.110;5.548;2023-02-28T05:28:01;13.90;50.60
24744;DHT22;12844;52.110;5.548;2023-02-28T05:30:27;13.90;50.70
24744;DHT22;12844;52.110;5.548;2023-02-28T05:32:52;13.90;50.70
24744;DHT22;12844;52.110;5.548;2023-02-28T05:35:18;13.90;50.60
24744;DHT22;12844;52.110;5.548;2023-02-28T05:37:43;13.90;50.40
24744;DHT22;12844;52.110;5.548;2023-02-28T05:40:09;13.90;50.60
24744;DHT22;12844;52.110;5.548;2023-02-28T05:42:38;13.90;50.60
24744;DHT22;12844;52.110;5.548;2023-02-28T05:45:04;13.90;50.60
24744;DHT22;12844;52.110;5.548;2023-02-28T05:47:29;13.90;50.60
24744;DHT22;12844;52.110;5.548;2023-02-28T05:49:55;13.90;50.60
24744;DHT22;12844;52.110;5.548;2023-02-28T05:52:20;13.90;50.60
24744;DHT22;12844;52.110;5.548;2023-02-28T05:54:46;13.90;50.60
24744;DHT22;12844;52.110;5.548;2023-02-28T05:57:11;13.90;50.60
24744;DHT22;12844;52.110;5.548;2023-02-28T05:59:37;13.90;50.60
24744;DHT22;12844;52.110;5.548;2023-02-28T06:02:10;13.90;50.70
24744;DHT22;12844;52.110;5.548;2023-02-28T06:04:37;13.90;50.70
24744;DHT22;12844;52.110;5.548;2023-02-28T06:07:02;13.90;50.70
24744;DHT22;12844;52.110;5.548;2023-02-28T06:09:28;13.90;50.60
24744;DHT22;12844;52.110;5.548;2023-02-28T06:11:54;13.90;50.60
24744;DHT22;12844;52.110;5.548;2023-02-28T06:14:20;13.90;51.20
24744;DHT22;12844;52.110;5.548;2023-02-28T06:16:45;13.80;50.60
24744;DHT22;12844;52.110;5.548;2023-02-28T06:19:11;13.90;50.70
24744;DHT22;12844;52.110;5.548;2023-02-28T06:21:37;13.90;50.60
24744;DHT22;12844;52.110;5.548;2023-02-28T06:24:02;13.90;50.60
24744;DHT22;12844;52.110;5.548;2023-02-28T06:26:28;13.80;50.60
24744;DHT22;12844;52.110;5.548;2023-02-28T06:28:54;13.80;50.60
24744;DHT22;12844;52.110;5.548;2023-02-28T06:31:20;13.80;50.60
24744;DHT22;12844;52.110;5.548;2023-02-28T06:33:45;13.80;50.60
24744;DHT22;12844;52.110;5.548;2023-02-28T06:36:11;13.80;50.60
24744;DHT22;12844;52.110;5.548;2023-02-28T06:38:38;13.80;50.60
24744;DHT22;12844;52.110;5.548;2023-02-28T06:41:03;13.80;50.60
24744;DHT22;12844;52.110;5.548;2023-02-28T06:43:30;13.80;50.50
24744;DHT22;12844;52.110;5.548;2023-02-28T06:45:57;13.80;50.60
24744;DHT22;12844;52.110;5.548;2023-02-28T06:48:23;13.80;50.60
24744;DHT22;12844;52.110;5.548;2023-02-28T06:50:49;13.80;50.60
24744;DHT22;12844;52.110;5.548;2023-02-28T06:53:14;13.80;50.60
24744;DHT22;12844;52.110;5.548;2023-02-28T06:55:40;13.80;50.60
24744;DHT22;12844;52.110;5.548;2023-02-28T06:58:05;13.80;50.60
24744;DHT22;12844;52.110;5.548;2023-02-28T07:00:43;13.80;50.60
24744;DHT22;12844;52.110;5.548;2023-02-28T07:03:09;13.80;50.60
24744;DHT22;12844;52.110;5.548;2023-02-28T07:05:35;13.80;50.70
24744;DHT22;12844;52.110;5.548;2023-02-28T07:08:01;13.80;50.70
24744;DHT22;12844;52.110;5.548;2023-02-28T07:10:27;13.80;50.60
24744;DHT22;12844;52.110;5.548;2023-02-28T07:12:52;13.80;50.70
24744;DHT22;12844;52.110;5.548;2023-02-28T07:15:17;13.80;50.60
24744;DHT22;12844;52.110;5.548;2023-02-28T07:17:43;13.80;50.60
24744;DHT22;12844;52.110;5.548;2023-02-28T07:20:08;13.80;50.60
24744;DHT22;12844;52.110;5.548;2023-02-28T07:22:34;13.80;50.70
24744;DHT22;12844;52.110;5.548;2023-02-28T07:24:59;13.80;50.70
24744;DHT22;12844;52.110;5.548;2023-02-28T07:27:25;13.80;50.70
24744;DHT22;12844;52.110;5.548;2023-02-28T07:29:51;13.70;51.30
24744;DHT22;12844;52.110;5.548;2023-02-28T07:32:17;13.70;50.80
24744;DHT22;12844;52.110;5.548;2023-02-28T07:34:43;13.70;50.80
24744;DHT22;12844;52.110;5.548;2023-02-28T07:37:09;13.70;50.80
24744;DHT22;12844;52.110;5.548;2023-02-28T07:39:34;13.70;50.90
24744;DHT22;12844;52.110;5.548;2023-02-28T07:42:00;13.70;50.80
24744;DHT22;12844;52.110;5.548;2023-02-28T07:44:28;13.70;50.80
24744;DHT22;12844;52.110;5.548;2023-02-28T07:46:54;13.70;50.80
24744;DHT22;12844;52.110;5.548;2023-02-28T07:49:19;13.70;50.80
24744;DHT22;12844;52.110;5.548;2023-02-28T07:51:45;13.60;51.00
24744;DHT22;12844;52.110;5.548;2023-02-28T07:54:10;13.60;51.10
24744;DHT22;12844;52.110;5.548;2023-02-28T07:56:36;13.60;51.10
24744;DHT22;12844;52.110;5.548;2023-02-28T07:59:01;13.60;51.00
24744;DHT22;12844;52.110;5.548;2023-02-28T08:01:27;13.70;51.10
24744;DHT22;12844;52.110;5.548;2023-02-28T08:03:52;13.70;51.10
24744;DHT22;12844;52.110;5.548;2023-02-28T08:06:22;13.70;51.00
24744;DHT22;12844;52.110;5.548;2023-02-28T08:08:48;13.70;51.10
24744;DHT22;12844;52.110;5.548;2023-02-28T08:11:14;13.70;51.10
24744;DHT22;12844;52.110;5.548;2023-02-28T08:13:41;13.70;51.10
24744;DHT22;12844;52.110;5.548;2023-02-28T08:16:07;13.70;50.90
24744;DHT22;12844;52.110;5.548;2023-02-28T08:18:33;13.70;50.90
24744;DHT22;12844;52.110;5.548;2023-02-28T08:20:58;13.70;51.00
24744;DHT22;12844;52.110;5.548;2023-02-28T08:23:24;13.70;51.00
24744;DHT22;12844;52.110;5.548;2023-02-28T08:25:56;13.70;51.00
24744;DHT22;12844;52.110;5.548;2023-02-28T08:28:22;13.70;51.00
24744;DHT22;12844;52.110;5.548;2023-02-28T08:30:47;13.70;51.00
24744;DHT22;12844;52.110;5.548;2023-02-28T08:33:14;13.70;51.00
24744;DHT22;12844;52.110;5.548;2023-02-28T08:35:39;13.70;51.00
24744;DHT22;12844;52.110;5.548;2023-02-28T08:38:05;13.70;51.00
24744;DHT22;12844;52.110;5.548;2023-02-28T08:40:30;13.70;51.00
24744;DHT22;12844;52.110;5.548;2023-02-28T08:42:56;13.60;51.00
24744;DHT22;12844;52.110;5.548;2023-02-28T08:45:21;13.60;51.10
24744;DHT22;12844;52.110;5.548;2023-02-28T08:47:47;13.60;51.30
24744;DHT22;12844;52.110;5.548;2023-02-28T08:50:12;13.60;51.40
24744;DHT22;12844;52.110;5.548;2023-02-28T08:52:42;13.60;51.70
24744;DHT22;12844;52.110;5.548;2023-02-28T08:55:07;13.50;51.80
24744;DHT22;12844;52.110;5.548;2023-02-28T08:57:34;13.60;51.80
24744;DHT22;12844;52.110;5.548;2023-02-28T09:00:00;13.60;51.80
24744;DHT22;12844;52.110;5.548;2023-02-28T09:02:32;13.60;51.80
24744;DHT22;12844;52.110;5.548;2023-02-28T09:04:58;13.60;51.80
24744;DHT22;12844;52.110;5.548;2023-02-28T09:07:24;13.70;51.70
24744;DHT22;12844;52.110;5.548;2023-02-28T09:09:49;13.70;51.70
24744;DHT22;12844;52.110;5.548;2023-02-28T09:12:26;13.70;51.70
24744;DHT22;12844;52.110;5.548;2023-02-28T09:14:52;13.70;51.70
24744;DHT22;12844;52.110;5.548;2023-02-28T09:17:18;13.70;52.20
24744;DHT22;12844;52.110;5.548;2023-02-28T09:19:44;13.60;51.60
24744;DHT22;12844;52.110;5.548;2023-02-28T09:22:10;13.70;51.60
24744;DHT22;12844;52.110;5.548;2023-02-28T09:24:36;13.70;51.70
24744;DHT22;12844;52.110;5.548;2023-02-28T09:27:02;13.70;51.60
24744;DHT22;12844;52.110;5.548;2023-02-28T09:29:27;13.70;51.60
24744;DHT22;12844;52.110;5.548;2023-02-28T09:31:53;13.70;51.60
24744;DHT22;12844;52.110;5.548;2023-02-28T09:34:18;13.70;51.60
24744;DHT22;12844;52.110;5.548;2023-02-28T09:36:44;13.80;51.60
24744;DHT22;12844;52.110;5.548;2023-02-28T09:39:10;13.80;51.60
24744;DHT22;12844;52.110;5.548;2023-02-28T09:41:40;13.80;51.60
24744;DHT22;12844;52.110;5.548;2023-02-28T09:44:13;13.80;51.60
24744;DHT22;12844;52.110;5.548;2023-02-28T09:46:41;13.80;51.60
24744;DHT22;12844;52.110;5.548;2023-02-28T09:49:12;13.80;51.70
24744;DHT22;12844;52.110;5.548;2023-02-28T09:54:21;13.80;51.80
24744;DHT22;12844;52.110;5.548;2023-02-28T09:56:53;13.90;51.80
24744;DHT22;12844;52.110;5.548;2023-02-28T10:01:57;13.90;51.70
24744;DHT22;12844;52.110;5.548;2023-02-28T10:06:50;13.90;51.70
24744;DHT22;12844;52.110;5.548;2023-02-28T10:09:26;13.90;51.70
24744;DHT22;12844;52.110;5.548;2023-02-28T10:11:54;13.90;51.70
24744;DHT22;12844;52.110;5.548;2023-02-28T10:14:22;13.90;51.70
24744;DHT22;12844;52.110;5.548;2023-02-28T10:22:03;14.00;51.70
24744;DHT22;12844;52.110;5.548;2023-02-28T10:24:30;14.00;51.70
24744;DHT22;12844;52.110;5.548;2023-02-28T10:27:05;14.00;51.60
24744;DHT22;12844;52.110;5.548;2023-02-28T10:29:31;14.10;51.60
24744;DHT22;12844;52.110;5.548;2023-02-28T10:31:58;14.10;51.50
24744;DHT22;12844;52.110;5.548;2023-02-28T10:34:26;14.10;51.60
24744;DHT22;12844;52.110;5.548;2023-02-28T10:36:51;14.10;51.60
24744;DHT22;12844;52.110;5.548;2023-02-28T10:39:37;14.10;51.50
24744;DHT22;12844;52.110;5.548;2023-02-28T10:42:03;14.10;51.50
24744;DHT22;12844;52.110;5.548;2023-02-28T10:44:29;14.10;51.40
24744;DHT22;12844;52.110;5.548;2023-02-28T10:46:54;14.10;51.50
24744;DHT22;12844;52.110;5.548;2023-02-28T10:49:24;14.20;51.60
24744;DHT22;12844;52.110;5.548;2023-02-28T10:51:55;14.20;51.60
24744;DHT22;12844;52.110;5.548;2023-02-28T10:54:23;14.20;51.50
24744;DHT22;12844;52.110;5.548;2023-02-28T10:57:06;14.20;51.60
24744;DHT22;12844;52.110;5.548;2023-02-28T10:59:33;14.20;51.50
24744;DHT22;12844;52.110;5.548;2023-02-28T11:01:58;14.20;51.50
24744;DHT22;12844;52.110;5.548;2023-02-28T11:07:04;14.30;51.50
24744;DHT22;12844;52.110;5.548;2023-02-28T11:09:31;14.30;51.50
24744;DHT22;12844;52.110;5.548;2023-02-28T11:11:57;14.30;51.30
24744;DHT22;12844;52.110;5.548;2023-02-28T11:14:33;14.40;51.40
24744;DHT22;12844;52.110;5.548;2023-02-28T11:17:12;14.40;51.30
24744;DHT22;12844;52.110;5.548;2023-02-28T11:19:39;14.40;51.30
24744;DHT22;12844;52.110;5.548;2023-02-28T11:22:06;14.40;51.30
24744;DHT22;12844;52.110;5.548;2023-02-28T11:24:33;14.40;51.20
24744;DHT22;12844;52.110;5.548;2023-02-28T11:27:00;14.40;51.20
24744;DHT22;12844;52.110;5.548;2023-02-28T11:29:26;14.50;51.20
24744;DHT22;12844;52.110;5.548;2023-02-28T11:34:27;14.50;51.20
24744;DHT22;12844;52.110;5.548;2023-02-28T11:36:54;14.50;51.20
24744;DHT22;12844;52.110;5.548;2023-02-28T11:39:19;14.50;51.10
24744;DHT22;12844;52.110;5.548;2023-02-28T11:49:14;14.60;51.20
24744;DHT22;12844;52.110;5.548;2023-02-28T11:56:53;14.50;51.40
24744;DHT22;12844;52.110;5.548;2023-02-28T12:02:20;14.50;51.40
24744;DHT22;12844;52.110;5.548;2023-02-28T12:04:58;14.50;51.40
24744;DHT22;12844;52.110;5.548;2023-02-28T12:15:23;14.50;51.50
24744;DHT22;12844;52.110;5.548;2023-02-28T12:18:03;14.50;51.50
24744;DHT22;12844;52.110;5.548;2023-02-28T12:25:56;14.40;51.60
24744;DHT22;12844;52.110;5.548;2023-02-28T12:28:27;14.40;51.60
24744;DHT22;12844;52.110;5.548;2023-02-28T12:30:56;14.50;51.60
24744;DHT22;12844;52.110;5.548;2023-02-28T12:33:24;14.50;51.60
24744;DHT22;12844;52.110;5.548;2023-02-28T12:38:19;14.50;51.60
24744;DHT22;12844;52.110;5.548;2023-02-28T12:40:50;14.50;51.70
24744;DHT22;12844;52.110;5.548;2023-02-28T12:43:18;14.50;51.70
24744;DHT22;12844;52.110;5.548;2023-02-28T12:45:54;14.40;51.60
24744;DHT22;12844;52.110;5.548;2023-02-28T12:48:26;14.50;51.70
24744;DHT22;12844;52.110;5.548;2023-02-28T12:50:52;14.40;51.60
24744;DHT22;12844;52.110;5.548;2023-02-28T12:53:22;14.40;51.80
24744;DHT22;12844;52.110;5.548;2023-02-28T12:58:27;14.40;51.80
24744;DHT22;12844;52.110;5.548;2023-02-28T13:03:30;14.40;51.60
24744;DHT22;12844;52.110;5.548;2023-02-28T13:09:10;14.50;51.70
24744;DHT22;12844;52.110;5.548;2023-02-28T13:11:39;14.50;51.70
24744;DHT22;12844;52.110;5.548;2023-02-28T13:14:06;14.50;51.60
24744;DHT22;12844;52.110;5.548;2023-02-28T13:16:53;14.50;51.60
24744;DHT22;12844;52.110;5.548;2023-02-28T13:19:20;14.40;51.60
24744;DHT22;12844;52.110;5.548;2023-02-28T13:21:46;14.50;51.60
24744;DHT22;12844;52.110;5.548;2023-02-28T13:24:36;14.50;51.70
24744;DHT22;12844;52.110;5.548;2023-02-28T13:27:10;14.50;51.70
24744;DHT22;12844;52.110;5.548;2023-02-28T13:29:42;14.50;51.60
24744;DHT22;12844;52.110;5.548;2023-02-28T13:39:45;14.60;51.60
24744;DHT22;12844;52.110;5.548;2023-02-28T13:47:28;14.80;51.60
24744;DHT22;12844;52.110;5.548;2023-02-28T13:49:54;14.90;51.50
24744;DHT22;12844;52.110;5.548;2023-02-28T13:52:43;15.10;51.40
24744;DHT22;12844;52.110;5.548;2023-02-28T13:58:08;15.70;50.70
24744;DHT22;12844;52.110;5.548;2023-02-28T14:00:42;15.80;50.40
24744;DHT22;12844;52.110;5.548;2023-02-28T14:05:35;16.30;50.30
24744;DHT22;12844;52.110;5.548;2023-02-28T14:08:05;16.50;50.20
24744;DHT22;12844;52.110;5.548;2023-02-28T14:10:33;16.60;49.90
24744;DHT22;12844;52.110;5.548;2023-02-28T14:13:01;16.70;49.80
24744;DHT22;12844;52.110;5.548;2023-02-28T14:17:59;16.80;49.80
24744;DHT22;12844;52.110;5.548;2023-02-28T14:20:26;16.80;49.90
24744;DHT22;12844;52.110;5.548;2023-02-28T14:23:15;16.90;50.00
24744;DHT22;12844;52.110;5.548;2023-02-28T14:25:44;16.90;50.00
24744;DHT22;12844;52.110;5.548;2023-02-28T14:30:51;16.90;50.50
24744;DHT22;12844;52.110;5.548;2023-02-28T14:38:25;16.80;49.20
24744;DHT22;12844;52.110;5.548;2023-02-28T14:40:54;16.90;49.50
24744;DHT22;12844;52.110;5.548;2023-02-28T14:43:24;16.80;49.50
24744;DHT22;12844;52.110;5.548;2023-02-28T14:45:58;16.80;49.60
24744;DHT22;12844;52.110;5.548;2023-02-28T14:48:24;16.80;49.70
24744;DHT22;12844;52.110;5.548;2023-02-28T14:50:54;16.80;49.60
24744;DHT22;12844;52.110;5.548;2023-02-28T14:53:21;16.80;49.80
24744;DHT22;12844;52.110;5.548;2023-02-28T14:55:47;16.80;49.90
24744;DHT22;12844;52.110;5.548;2023-02-28T14:58:30;16.70;50.00
24744;DHT22;12844;52.110;5.548;2023-02-28T15:00:57;16.70;50.00
24744;DHT22;12844;52.110;5.548;2023-02-28T15:03:24;16.70;50.10
24744;DHT22;12844;52.110;5.548;2023-02-28T15:05:58;16.70;50.20
24744;DHT22;12844;52.110;5.548;2023-02-28T15:08:24;16.60;50.30
24744;DHT22;12844;52.110;5.548;2023-02-28T15:10:52;16.70;50.60
24744;DHT22;12844;52.110;5.548;2023-02-28T15:13:18;16.70;50.50
24744;DHT22;12844;52.110;5.548;2023-02-28T15:18:22;16.70;50.60
24744;DHT22;12844;52.110;5.548;2023-02-28T15:20:49;16.60;50.70
24744;DHT22;12844;52.110;5.548;2023-02-28T15:23:16;16.60;50.90
24744;DHT22;12844;52.110;5.548;2023-02-28T15:25:42;16.60;51.00
24744;DHT22;12844;52.110;5.548;2023-02-28T15:28:15;16.60;51.00
24744;DHT22;12844;52.110;5.548;2023-02-28T15:30:49;16.60;51.10
24744;DHT22;12844;52.110;5.548;2023-02-28T15:33:20;16.60;51.20
24744;DHT22;12844;52.110;5.548;2023-02-28T15:35:46;16.60;51.20
24744;DHT22;12844;52.110;5.548;2023-02-28T15:38:18;16.50;51.20
24744;DHT22;12844;52.110;5.548;2023-02-28T15:40:49;16.50;51.30
24744;DHT22;12844;52.110;5.548;2023-02-28T15:43:28;16.50;51.40
24744;DHT22;12844;52.110;5.548;2023-02-28T15:46:05;16.50;51.50
24744;DHT22;12844;52.110;5.548;2023-02-28T15:53:28;16.50;51.70
24744;DHT22;12844;52.110;5.548;2023-02-28T15:55:58;16.50;51.70
24744;DHT22;12844;52.110;5.548;2023-02-28T15:58:24;16.40;51.70
24744;DHT22;12844;52.110;5.548;2023-02-28T16:01:00;16.40;51.80
24744;DHT22;12844;52.110;5.548;2023-02-28T16:03:27;16.40;51.90
24744;DHT22;12844;52.110;5.548;2023-02-28T16:06:09;16.40;51.90
24744;DHT22;12844;52.110;5.548;2023-02-28T16:08:35;16.40;51.90
24744;DHT22;12844;52.110;5.548;2023-02-28T16:11:00;16.40;51.90
24744;DHT22;12844;52.110;5.548;2023-02-28T16:13:25;16.40;52.10
24744;DHT22;12844;52.110;5.548;2023-02-28T16:15:51;16.40;52.30
24744;DHT22;12844;52.110;5.548;2023-02-28T16:18:17;16.40;52.20
24744;DHT22;12844;52.110;5.548;2023-02-28T16:20:42;16.40;52.30
24744;DHT22;12844;52.110;5.548;2023-02-28T16:23:09;16.30;52.40
24744;DHT22;12844;52.110;5.548;2023-02-28T16:25:36;16.30;52.30
24744;DHT22;12844;52.110;5.548;2023-02-28T16:28:02;16.40;52.50
24744;DHT22;12844;52.110;5.548;2023-02-28T16:30:28;16.40;52.40
24744;DHT22;12844;52.110;5.548;2023-02-28T16:32:56;16.40;52.30
24744;DHT22;12844;52.110;5.548;2023-02-28T16:35:22;16.40;52.40
24744;DHT22;12844;52.110;5.548;2023-02-28T16:37:48;16.40;52.20
24744;DHT22;12844;52.110;5.548;2023-02-28T16:40:17;16.40;52.40
24744;DHT22;12844;52.110;5.548;2023-02-28T16:42:43;16.60;52.70
24744;DHT22;12844;52.110;5.548;2023-02-28T16:45:16;16.70;52.40
24744;DHT22;12844;52.110;5.548;2023-02-28T16:47:44;16.90;52.20
24744;DHT22;12844;52.110;5.548;2023-02-28T16:50:17;17.20;52.10
24744;DHT22;12844;52.110;5.548;2023-02-28T16:52:43;17.30;52.10
24744;DHT22;12844;52.110;5.548;2023-02-28T16:55:09;17.40;52.00
24744;DHT22;12844;52.110;5.548;2023-02-28T16:57:35;17.60;51.50
24744;DHT22;12844;52.110;5.548;2023-02-28T17:00:00;17.80;51.20
24744;DHT22;12844;52.110;5.548;2023-02-28T17:02:26;17.90;51.20
24744;DHT22;12844;52.110;5.548;2023-02-28T17:04:51;17.90;51.30
24744;DHT22;12844;52.110;5.548;2023-02-28T17:07:17;18.00;51.10
24744;DHT22;12844;52.110;5.548;2023-02-28T17:09:43;18.00;51.00
24744;DHT22;12844;52.110;5.548;2023-02-28T17:12:08;18.00;51.00
24744;DHT22;12844;52.110;5.548;2023-02-28T17:14:34;18.10;51.10
24744;DHT22;12844;52.110;5.548;2023-02-28T17:17:00;18.10;51.30
24744;DHT22;12844;52.110;5.548;2023-02-28T17:19:25;18.00;51.20
24744;DHT22;12844;52.110;5.548;2023-02-28T17:21:50;18.00;51.10
24744;DHT22;12844;52.110;5.548;2023-02-28T17:24:16;18.00;51.20
24744;DHT22;12844;52.110;5.548;2023-02-28T17:26:41;18.00;51.20
24744;DHT22;12844;52.110;5.548;2023-02-28T17:29:17;18.00;51.30
24744;DHT22;12844;52.110;5.548;2023-02-28T17:31:43;17.90;51.60
24744;DHT22;12844;52.110;5.548;2023-02-28T17:34:09;17.90;51.60
24744;DHT22;12844;52.110;5.548;2023-02-28T17:36:34;17.80;51.60
24744;DHT22;12844;52.110;5.548;2023-02-28T17:39:02;17.80;52.00
24744;DHT22;12844;52.110;5.548;2023-02-28T17:41:28;17.80;51.90